createdAt,value
2018-05-15T00:00:47.461Z,949.85
2018-05-15T00:01:47.467Z,949.84
2018-05-15T00:02:47.479Z,949.80
2018-05-15T00:03:47.494Z,949.78
2018-05-15T00:04:47.497Z,949.72
2018-05-15T00:05:47.562Z,949.73
2018-05-15T00:06:47.525Z,949.75
2018-05-15T00:07:47.528Z,949.69
2018-05-15T00:08:47.535Z,949.70
2018-05-15T00:09:47.558Z,949.69
2018-05-15T00:10:47.564Z,949.64
2018-05-15T00:11:47.570Z,949.66
2018-05-15T00:12:47.579Z,949.65
2018-05-15T00:13:47.591Z,949.65
2018-05-15T00:14:47.599Z,949.69
2018-05-15T00:15:47.615Z,949.66
2018-05-15T00:16:47.620Z,949.69
2018-05-15T00:17:47.630Z,949.69
2018-05-15T00:18:47.641Z,949.68
2018-05-15T00:19:47.648Z,949.74
2018-05-15T00:20:47.662Z,949.70
2018-05-15T00:21:47.678Z,949.75
2018-05-15T00:22:47.683Z,949.75
2018-05-15T00:23:47.690Z,949.76
2018-05-15T00:24:47.701Z,949.75
2018-05-15T00:25:47.710Z,949.72
2018-05-15T00:26:47.719Z,949.81
2018-05-15T00:27:47.736Z,949.78
2018-05-15T00:28:47.741Z,949.77
2018-05-15T00:29:47.751Z,949.75
2018-05-15T00:30:47.764Z,949.78
2018-05-15T00:31:47.767Z,949.77
2018-05-15T00:32:47.778Z,949.76
2018-05-15T00:33:47.796Z,949.77
2018-05-15T00:34:47.798Z,949.76
2018-05-15T00:35:47.808Z,949.75
2018-05-15T00:36:47.820Z,949.76
2018-05-15T00:37:47.831Z,949.77
2018-05-15T00:38:47.840Z,949.74
2018-05-15T00:39:47.856Z,949.75
2018-05-15T00:40:47.868Z,949.77
2018-05-15T00:41:47.871Z,949.77
2018-05-15T00:42:47.878Z,949.77
2018-05-15T00:43:47.894Z,949.76
2018-05-15T00:44:47.902Z,949.78
2018-05-15T00:45:47.912Z,949.81
2018-05-15T00:46:47.924Z,949.78
2018-05-15T00:47:47.929Z,949.80
2018-05-15T00:48:47.938Z,949.82
2018-05-15T00:49:47.952Z,949.83
2018-05-15T00:50:47.962Z,949.88
2018-05-15T00:51:47.968Z,949.90
2018-05-15T00:52:47.990Z,949.87
2018-05-15T00:53:47.990Z,949.90
2018-05-15T00:54:47.999Z,949.92
2018-05-15T00:55:48.006Z,949.91
2018-05-15T00:56:48.018Z,949.91
2018-05-15T00:57:48.032Z,949.90
2018-05-15T00:58:48.048Z,949.96
2018-05-15T00:59:48.048Z,949.94
2018-05-15T01:00:48.059Z,949.92
2018-05-15T01:01:48.075Z,949.95
2018-05-15T01:02:48.076Z,949.96
2018-05-15T01:03:48.089Z,949.95
2018-05-15T01:04:48.110Z,949.93
2018-05-15T01:05:48.109Z,949.98
2018-05-15T01:06:48.120Z,949.95
2018-05-15T01:07:48.129Z,949.91
2018-05-15T01:08:48.140Z,949.93
2018-05-15T01:09:48.149Z,949.95
2018-05-15T01:10:48.166Z,949.91
2018-05-15T01:11:48.169Z,949.92
2018-05-15T01:12:48.176Z,949.89
2018-05-15T01:13:48.188Z,949.86
2018-05-15T01:14:48.201Z,949.87
2018-05-15T01:15:48.214Z,949.90
2018-05-15T01:16:48.219Z,949.94
2018-05-15T01:17:48.229Z,949.92
2018-05-15T01:18:48.238Z,949.91
2018-05-15T01:19:48.253Z,949.91
2018-05-15T01:20:48.268Z,949.91
2018-05-15T01:21:48.275Z,949.92
2018-05-15T01:22:48.276Z,949.91
2018-05-15T01:23:48.288Z,949.90
2018-05-15T01:24:48.303Z,949.87
2018-05-15T01:25:48.312Z,949.92
2018-05-15T01:26:48.322Z,949.89
2018-05-15T01:27:48.334Z,949.88
2018-05-15T01:28:48.339Z,949.87
2018-05-15T01:29:48.350Z,949.88
2018-05-15T01:30:48.358Z,949.90
2018-05-15T01:31:48.366Z,949.87
2018-05-15T01:32:48.379Z,949.85
2018-05-15T01:33:48.398Z,949.86
2018-05-15T01:34:48.403Z,949.88
2018-05-15T01:35:48.412Z,949.86
2018-05-15T01:36:48.420Z,949.88
2018-05-15T01:37:48.429Z,949.88
2018-05-15T01:38:48.436Z,949.93
2018-05-15T01:39:48.456Z,949.91
2018-05-15T01:40:48.459Z,949.95
2018-05-15T01:41:48.468Z,950.00
2018-05-15T01:42:48.481Z,949.98
2018-05-15T01:43:48.488Z,949.97
2018-05-15T01:44:48.498Z,950.00
2018-05-15T01:45:48.519Z,950.03
2018-05-15T01:46:48.524Z,950.04
2018-05-15T01:47:48.530Z,950.06
2018-05-15T01:48:48.538Z,950.06
2018-05-15T01:49:48.551Z,950.05
2018-05-15T01:50:48.559Z,950.06
2018-05-15T01:51:48.580Z,950.07
2018-05-15T01:52:48.577Z,950.07
2018-05-15T01:53:48.590Z,950.02
2018-05-15T01:54:48.596Z,950.02
2018-05-15T01:55:48.622Z,950.04
2018-05-15T01:56:48.617Z,950.05
2018-05-15T01:57:48.637Z,950.04
2018-05-15T01:58:48.641Z,950.03
2018-05-15T01:59:48.655Z,950.04
2018-05-15T02:00:48.659Z,950.08
2018-05-15T02:01:48.668Z,950.04
2018-05-15T02:02:48.679Z,950.03
2018-05-15T02:03:48.692Z,950.06
2018-05-15T02:04:48.699Z,950.05
2018-05-15T02:05:48.710Z,950.04
2018-05-15T02:06:48.718Z,950.00
2018-05-15T02:07:48.729Z,950.01
2018-05-15T02:08:48.738Z,950.01
2018-05-15T02:09:48.752Z,950.00
2018-05-15T02:10:48.757Z,949.94
2018-05-15T02:11:48.768Z,949.94
2018-05-15T02:12:48.780Z,949.95
2018-05-15T02:13:48.788Z,949.94
2018-05-15T02:14:48.798Z,949.91
2018-05-15T02:15:48.819Z,949.92
2018-05-15T02:16:48.818Z,949.93
2018-05-15T02:17:48.827Z,949.93
2018-05-15T02:18:48.840Z,949.94
2018-05-15T02:19:48.846Z,949.96
2018-05-15T02:20:48.860Z,949.95
2018-05-15T02:21:48.871Z,949.94
2018-05-15T02:22:48.879Z,949.94
2018-05-15T02:23:48.888Z,949.91
2018-05-15T02:24:48.898Z,949.94
2018-05-15T02:25:48.911Z,949.98
2018-05-15T02:26:48.922Z,949.97
2018-05-15T02:27:48.930Z,949.95
2018-05-15T02:28:48.950Z,949.95
2018-05-15T02:29:48.950Z,949.93
2018-05-15T02:30:48.958Z,949.91
2018-05-15T02:31:48.969Z,949.93
2018-05-15T02:32:48.979Z,949.95
2018-05-15T02:33:48.991Z,949.95
2018-05-15T02:34:49.011Z,949.96
2018-05-15T02:35:49.007Z,950.00
2018-05-15T02:36:49.021Z,949.99
2018-05-15T02:37:49.031Z,949.99
2018-05-15T02:38:49.046Z,949.98
2018-05-15T02:39:49.054Z,949.99
2018-05-15T02:40:49.061Z,949.99
2018-05-15T02:41:49.074Z,950.02
2018-05-15T02:42:49.079Z,950.01
2018-05-15T02:43:49.089Z,950.01
2018-05-15T02:44:49.095Z,950.02
2018-05-15T02:45:49.109Z,950.04
2018-05-15T02:46:49.118Z,949.99
2018-05-15T02:47:49.128Z,950.05
2018-05-15T02:48:49.138Z,950.03
2018-05-15T02:49:49.160Z,950.03
2018-05-15T02:50:49.155Z,950.02
2018-05-15T02:51:49.169Z,950.00
2018-05-15T02:52:49.175Z,949.97
2018-05-15T02:53:49.187Z,949.97
2018-05-15T02:54:49.196Z,950.00
2018-05-15T02:55:49.251Z,949.99
2018-05-15T02:56:49.216Z,950.01
2018-05-15T02:57:49.226Z,950.02
2018-05-15T02:58:49.243Z,950.02
2018-05-15T02:59:49.244Z,950.01
2018-05-15T03:00:49.263Z,950.02
2018-05-15T03:01:49.264Z,950.01
2018-05-15T03:02:49.278Z,950.01
2018-05-15T03:03:49.284Z,950.01
2018-05-15T03:04:49.295Z,950.06
2018-05-15T03:05:49.304Z,950.01
2018-05-15T03:06:49.320Z,950.02
2018-05-15T03:07:49.325Z,950.05
2018-05-15T03:08:49.334Z,950.02
2018-05-15T03:09:49.342Z,950.03
2018-05-15T03:10:49.352Z,950.03
2018-05-15T03:11:49.455Z,950.06
2018-05-15T03:12:49.382Z,950.08
2018-05-15T03:13:49.383Z,950.14
2018-05-15T03:14:49.395Z,950.13
2018-05-15T03:15:49.407Z,950.19
2018-05-15T03:16:49.413Z,950.19
2018-05-15T03:17:49.419Z,950.18
2018-05-15T03:18:49.440Z,950.24
2018-05-15T03:19:49.440Z,950.24
2018-05-15T03:20:49.456Z,950.26
2018-05-15T03:21:49.466Z,950.18
2018-05-15T03:22:49.469Z,950.22
2018-05-15T03:23:49.480Z,950.21
2018-05-15T03:24:49.497Z,950.19
2018-05-15T03:25:49.502Z,950.19
2018-05-15T03:26:49.509Z,950.18
2018-05-15T03:27:49.520Z,950.19
2018-05-15T03:28:49.529Z,950.14
2018-05-15T03:29:49.545Z,950.14
2018-05-15T03:30:49.560Z,950.12
2018-05-15T03:31:49.557Z,950.12
2018-05-15T03:32:49.567Z,950.16
2018-05-15T03:33:49.579Z,950.13
2018-05-15T03:34:49.588Z,950.16
2018-05-15T03:35:49.597Z,950.16
2018-05-15T03:36:49.614Z,950.18
2018-05-15T03:37:49.621Z,950.19
2018-05-15T03:38:49.629Z,950.23
2018-05-15T03:39:49.641Z,950.22
2018-05-15T03:40:49.648Z,950.25
2018-05-15T03:41:49.659Z,950.29
2018-05-15T03:42:49.672Z,950.25
2018-05-15T03:43:49.679Z,950.29
2018-05-15T03:44:49.690Z,950.29
2018-05-15T03:45:49.697Z,950.34
2018-05-15T03:46:49.706Z,950.36
2018-05-15T03:47:49.716Z,950.36
2018-05-15T03:48:49.734Z,950.37
2018-05-15T03:49:49.737Z,950.35
2018-05-15T03:50:49.747Z,950.32
2018-05-15T03:51:49.756Z,950.35
2018-05-15T03:52:49.767Z,950.35
2018-05-15T03:53:49.779Z,950.34
2018-05-15T03:54:49.786Z,950.33
2018-05-15T03:55:49.803Z,950.31
2018-05-15T03:56:49.807Z,950.32
2018-05-15T03:57:49.817Z,950.33
2018-05-15T03:58:49.825Z,950.32
2018-05-15T03:59:49.839Z,950.32
2018-05-15T04:00:49.844Z,950.31
2018-05-15T04:01:49.863Z,950.31
2018-05-15T04:02:49.865Z,950.33
2018-05-15T04:03:49.876Z,950.33
2018-05-15T04:04:49.884Z,950.28
2018-05-15T04:05:49.895Z,950.31
2018-05-15T04:06:49.905Z,950.32
2018-05-15T04:07:49.916Z,950.29
2018-05-15T04:08:49.930Z,950.30
2018-05-15T04:09:49.935Z,950.30
2018-05-15T04:10:50.045Z,950.32
2018-05-15T04:11:49.956Z,950.33
2018-05-15T04:12:49.963Z,950.37
2018-05-15T04:13:49.974Z,950.41
2018-05-15T04:14:50.012Z,950.45
2018-05-15T04:15:49.993Z,950.46
2018-05-15T04:16:50.001Z,950.43
2018-05-15T04:17:50.016Z,950.43
2018-05-15T04:18:50.027Z,950.48
2018-05-15T04:19:50.035Z,950.50
2018-05-15T04:20:50.049Z,950.51
2018-05-15T04:21:50.053Z,950.53
2018-05-15T04:22:50.064Z,950.53
2018-05-15T04:23:50.073Z,950.58
2018-05-15T04:24:50.086Z,950.55
2018-05-15T04:25:50.092Z,950.56
2018-05-15T04:26:50.100Z,950.57
2018-05-15T04:27:50.123Z,950.59
2018-05-15T04:28:50.120Z,950.53
2018-05-15T04:29:50.130Z,950.53
2018-05-15T04:30:50.144Z,950.53
2018-05-15T04:31:50.151Z,950.53
2018-05-15T04:32:50.167Z,950.57
2018-05-15T04:33:50.192Z,950.58
2018-05-15T04:34:50.182Z,950.56
2018-05-15T04:35:50.191Z,950.58
2018-05-15T04:36:50.202Z,950.58
2018-05-15T04:37:50.211Z,950.62
2018-05-15T04:38:50.221Z,950.63
2018-05-15T04:39:50.232Z,950.64
2018-05-15T04:40:50.237Z,950.69
2018-05-15T04:41:50.251Z,950.68
2018-05-15T04:42:50.264Z,950.73
2018-05-15T04:43:50.492Z,950.71
2018-05-15T04:44:50.291Z,950.75
2018-05-15T04:45:50.290Z,950.72
2018-05-15T04:46:50.298Z,950.73
2018-05-15T04:47:50.312Z,950.74
2018-05-15T04:48:50.322Z,950.76
2018-05-15T04:49:50.334Z,950.80
2018-05-15T04:50:50.345Z,950.77
2018-05-15T04:51:50.349Z,950.78
2018-05-15T04:52:50.360Z,950.82
2018-05-15T04:53:50.369Z,950.85
2018-05-15T04:54:50.379Z,950.83
2018-05-15T04:55:50.391Z,950.85
2018-05-15T04:56:50.414Z,950.84
2018-05-15T04:57:50.409Z,950.84
2018-05-15T04:58:50.419Z,950.85
2018-05-15T04:59:50.428Z,950.81
2018-05-15T05:00:50.437Z,950.84
2018-05-15T05:01:50.448Z,950.82
2018-05-15T05:02:50.467Z,950.79
2018-05-15T05:03:50.471Z,950.78
2018-05-15T05:04:50.482Z,950.82
2018-05-15T05:05:50.490Z,950.85
2018-05-15T05:06:50.498Z,950.85
2018-05-15T05:07:50.509Z,950.88
2018-05-15T05:08:50.527Z,950.87
2018-05-15T05:09:50.528Z,950.85
2018-05-15T05:10:50.544Z,950.92
2018-05-15T05:11:50.597Z,950.93
2018-05-15T05:12:50.559Z,950.92
2018-05-15T05:13:50.569Z,950.95
2018-05-15T05:14:50.589Z,950.96
2018-05-15T05:15:50.589Z,950.96
2018-05-15T05:16:50.600Z,951.01
2018-05-15T05:17:50.609Z,951.02
2018-05-15T05:18:50.626Z,951.04
2018-05-15T05:19:50.634Z,951.04
2018-05-15T05:20:50.640Z,951.05
2018-05-15T05:21:50.659Z,951.10
2018-05-15T05:22:50.658Z,951.10
2018-05-15T05:23:50.672Z,951.13
2018-05-15T05:24:50.680Z,951.15
2018-05-15T05:25:50.690Z,951.10
2018-05-15T05:26:50.781Z,951.13
2018-05-15T05:27:50.724Z,951.11
2018-05-15T05:28:50.726Z,951.13
2018-05-15T05:29:50.733Z,951.12
2018-05-15T05:30:50.747Z,951.12
2018-05-15T05:31:50.754Z,951.11
2018-05-15T05:32:50.761Z,951.09
2018-05-15T05:33:50.779Z,951.13
2018-05-15T05:34:50.782Z,951.10
2018-05-15T05:35:50.790Z,951.13
2018-05-15T05:36:50.803Z,951.15
2018-05-15T05:37:50.812Z,951.14
2018-05-15T05:38:50.821Z,951.20
2018-05-15T05:39:50.842Z,951.21
2018-05-15T05:40:50.847Z,951.17
2018-05-15T05:41:50.855Z,951.19
2018-05-15T05:42:50.863Z,951.18
2018-05-15T05:43:50.871Z,951.20
2018-05-15T05:44:50.880Z,951.19
2018-05-15T05:45:50.902Z,951.22
2018-05-15T05:46:50.901Z,951.20
2018-05-15T05:47:50.912Z,951.18
2018-05-15T05:48:50.925Z,951.20
2018-05-15T05:49:50.940Z,951.20
2018-05-15T05:50:50.942Z,951.19
2018-05-15T05:51:50.959Z,951.20
2018-05-15T05:52:50.963Z,951.21
2018-05-15T05:53:50.974Z,951.19
2018-05-15T05:54:50.988Z,951.16
2018-05-15T05:55:50.993Z,951.11
2018-05-15T05:56:51.003Z,951.11
2018-05-15T05:57:51.021Z,951.14
2018-05-15T05:58:51.023Z,951.12
2018-05-15T05:59:51.033Z,951.13
2018-05-15T06:00:51.045Z,951.16
2018-05-15T06:01:51.056Z,951.17
2018-05-15T06:02:51.065Z,951.16
2018-05-15T06:03:51.091Z,951.19
2018-05-15T06:04:51.086Z,951.19
2018-05-15T06:05:51.095Z,951.18
2018-05-15T06:06:51.106Z,951.17
2018-05-15T06:07:51.116Z,951.17
2018-05-15T06:08:51.128Z,951.19
2018-05-15T06:09:51.148Z,951.19
2018-05-15T06:10:51.146Z,951.20
2018-05-15T06:11:51.156Z,951.22
2018-05-15T06:12:51.168Z,951.24
2018-05-15T06:13:51.178Z,951.23
2018-05-15T06:14:51.186Z,951.23
2018-05-15T06:15:51.203Z,951.19
2018-05-15T06:16:51.210Z,951.21
2018-05-15T06:17:51.216Z,951.22
2018-05-15T06:18:51.228Z,951.23
2018-05-15T06:19:51.240Z,951.23
2018-05-15T06:20:51.363Z,951.24
2018-05-15T06:21:51.263Z,951.24
2018-05-15T06:22:51.267Z,951.24
2018-05-15T06:23:51.278Z,951.20
2018-05-15T06:24:51.289Z,951.21
2018-05-15T06:25:51.299Z,951.20
2018-05-15T06:26:51.318Z,951.20
2018-05-15T06:27:51.320Z,951.23
2018-05-15T06:28:51.333Z,951.21
2018-05-15T06:29:51.341Z,951.25
2018-05-15T06:30:51.350Z,951.22
2018-05-15T06:31:51.364Z,951.27
2018-05-15T06:32:51.378Z,951.30
2018-05-15T06:33:51.382Z,951.28
2018-05-15T06:34:51.392Z,951.35
2018-05-15T06:35:51.415Z,951.39
2018-05-15T06:36:51.414Z,951.40
2018-05-15T06:37:51.426Z,951.41
2018-05-15T06:38:51.435Z,951.40
2018-05-15T06:39:51.449Z,951.41
2018-05-15T06:40:51.455Z,951.40
2018-05-15T06:41:51.465Z,951.43
2018-05-15T06:42:51.477Z,951.43
2018-05-15T06:43:51.486Z,951.43
2018-05-15T06:44:51.587Z,951.40
2018-05-15T06:45:51.515Z,951.42
2018-05-15T06:46:51.517Z,951.41
2018-05-15T06:47:51.527Z,951.38
2018-05-15T06:48:51.545Z,951.41
2018-05-15T06:49:51.550Z,951.44
2018-05-15T06:50:51.559Z,951.47
2018-05-15T06:51:51.593Z,951.50
2018-05-15T06:52:51.580Z,951.58
2018-05-15T06:53:51.592Z,951.62
2018-05-15T06:54:51.601Z,951.66
2018-05-15T06:55:51.619Z,951.67
2018-05-15T06:56:51.624Z,951.69
2018-05-15T06:57:51.639Z,951.71
2018-05-15T06:58:51.639Z,951.69
2018-05-15T06:59:51.654Z,951.68
2018-05-15T07:00:51.663Z,951.74
2018-05-15T07:01:51.753Z,951.76
2018-05-15T07:02:51.683Z,951.79
2018-05-15T07:03:51.703Z,951.77
2018-05-15T07:04:51.705Z,951.77
2018-05-15T07:05:51.718Z,951.74
2018-05-15T07:06:51.730Z,951.78
2018-05-15T07:07:51.740Z,951.80
2018-05-15T07:08:51.748Z,951.83
2018-05-15T07:09:51.765Z,951.84
2018-05-15T07:10:51.772Z,951.86
2018-05-15T07:11:51.781Z,951.84
2018-05-15T07:12:51.788Z,951.82
2018-05-15T07:13:51.799Z,951.87
2018-05-15T07:14:51.811Z,951.86
2018-05-15T07:15:51.820Z,951.85
2018-05-15T07:16:51.836Z,951.84
2018-05-15T07:17:51.843Z,951.82
2018-05-15T07:18:51.853Z,951.84
2018-05-15T07:19:51.870Z,951.85
2018-05-15T07:20:51.872Z,951.90
2018-05-15T07:21:51.888Z,951.91
2018-05-15T07:22:51.902Z,951.91
2018-05-15T07:23:51.903Z,951.93
2018-05-15T07:24:51.916Z,951.93
2018-05-15T07:25:51.924Z,951.92
2018-05-15T07:26:51.936Z,951.94
2018-05-15T07:27:51.946Z,951.94
2018-05-15T07:28:51.960Z,951.94
2018-05-15T07:29:51.991Z,951.95
2018-05-15T07:30:51.975Z,951.99
2018-05-15T07:31:51.986Z,951.96
2018-05-15T07:32:51.995Z,951.98
2018-05-15T07:33:52.008Z,951.93
2018-05-15T07:34:52.017Z,951.96
2018-05-15T07:35:52.030Z,951.90
2018-05-15T07:36:52.037Z,951.96
2018-05-15T07:37:52.051Z,951.92
2018-05-15T07:38:52.056Z,951.92
2018-05-15T07:39:52.067Z,951.92
2018-05-15T07:40:52.077Z,951.99
2018-05-15T07:41:52.092Z,952.01
2018-05-15T07:42:52.098Z,951.95
2018-05-15T07:43:52.113Z,951.94
2018-05-15T07:44:52.118Z,951.94
2018-05-15T07:45:52.128Z,951.91
2018-05-15T07:46:52.139Z,951.95
2018-05-15T07:47:52.155Z,951.93
2018-05-15T07:48:52.159Z,951.96
2018-05-15T07:49:52.174Z,952.00
2018-05-15T07:50:52.181Z,951.95
2018-05-15T07:51:52.191Z,951.93
2018-05-15T07:52:52.204Z,951.90
2018-05-15T07:53:52.211Z,951.83
2018-05-15T07:54:52.222Z,951.83
2018-05-15T07:55:52.231Z,951.76
2018-05-15T07:56:52.243Z,951.72
2018-05-15T07:57:52.261Z,951.72
2018-05-15T07:58:52.266Z,951.66
2018-05-15T07:59:52.273Z,951.61
2018-05-15T08:00:52.285Z,951.58
2018-05-15T08:01:52.295Z,951.53
2018-05-15T08:02:52.304Z,951.52
2018-05-15T08:03:52.323Z,951.54
2018-05-15T08:04:52.326Z,951.52
2018-05-15T08:05:52.337Z,951.50
2018-05-15T08:06:52.348Z,951.48
2018-05-15T08:07:52.364Z,951.44
2018-05-15T08:08:52.370Z,951.47
2018-05-15T08:09:52.387Z,951.51
2018-05-15T08:10:52.392Z,951.57
2018-05-15T08:11:52.405Z,951.56
2018-05-15T08:12:52.413Z,951.53
2018-05-15T08:13:52.425Z,951.58
2018-05-15T08:14:52.437Z,951.53
2018-05-15T08:15:52.445Z,951.56
2018-05-15T08:16:52.460Z,951.61
2018-05-15T08:17:52.467Z,951.59
2018-05-15T08:18:52.482Z,951.66
2018-05-15T08:19:52.489Z,951.68
2018-05-15T08:20:52.505Z,951.71
2018-05-15T08:21:52.511Z,951.72
2018-05-15T08:22:52.520Z,951.77
2018-05-15T08:23:52.545Z,951.78
2018-05-15T08:24:52.545Z,951.82
2018-05-15T08:25:52.559Z,951.86
2018-05-15T08:26:52.564Z,951.89
2018-05-15T08:27:52.577Z,951.89
2018-05-15T08:28:52.587Z,951.93
2018-05-15T08:29:52.604Z,951.93
2018-05-15T08:30:52.666Z,951.98
2018-05-15T08:31:52.621Z,951.93
2018-05-15T08:32:52.636Z,951.96
2018-05-15T08:33:52.644Z,951.95
2018-05-15T08:34:52.658Z,951.98
2018-05-15T08:35:52.675Z,951.97
2018-05-15T08:36:52.677Z,951.95
2018-05-15T08:37:52.690Z,951.97
2018-05-15T08:38:52.697Z,951.97
2018-05-15T08:39:52.709Z,951.98
2018-05-15T08:40:52.719Z,952.01
2018-05-15T08:41:52.737Z,952.01
2018-05-15T08:42:52.740Z,952.01
2018-05-15T08:43:52.753Z,952.01
2018-05-15T08:44:52.764Z,952.05
2018-05-15T08:45:52.781Z,952.06
2018-05-15T08:46:52.785Z,952.09
2018-05-15T08:47:52.811Z,952.10
2018-05-15T08:48:52.812Z,952.09
2018-05-15T08:49:52.820Z,952.10
2018-05-15T08:50:52.836Z,952.08
2018-05-15T08:51:52.847Z,952.04
2018-05-15T08:52:52.856Z,952.02
2018-05-15T08:53:52.867Z,952.04
2018-05-15T08:54:52.873Z,952.03
2018-05-15T08:55:52.885Z,952.05
2018-05-15T08:56:52.896Z,952.02
2018-05-15T08:57:52.908Z,952.03
2018-05-15T08:58:52.920Z,952.00
2018-05-15T08:59:52.949Z,951.98
2018-05-15T09:00:52.943Z,951.95
2018-05-15T09:01:52.950Z,952.03
2018-05-15T09:02:52.960Z,951.96
2018-05-15T09:03:52.974Z,951.98
2018-05-15T09:04:52.985Z,951.97
2018-05-15T09:05:53.003Z,951.98
2018-05-15T09:06:53.006Z,951.97
2018-05-15T09:07:53.016Z,952.04
2018-05-15T09:08:53.032Z,952.03
2018-05-15T09:09:53.036Z,952.05
2018-05-15T09:10:53.052Z,952.08
2018-05-15T09:11:53.072Z,952.11
2018-05-15T09:12:53.072Z,952.13
2018-05-15T09:13:53.083Z,952.09
2018-05-15T09:14:53.095Z,952.08
2018-05-15T09:15:53.107Z,952.12
2018-05-15T09:16:53.116Z,952.17
2018-05-15T09:17:53.129Z,952.19
2018-05-15T09:18:53.145Z,952.15
2018-05-15T09:19:53.149Z,952.26
2018-05-15T09:20:53.161Z,952.19
2018-05-15T09:21:53.175Z,952.20
2018-05-15T09:22:53.188Z,952.14
2018-05-15T09:23:53.194Z,952.14
2018-05-15T09:24:53.210Z,952.15
2018-05-15T09:25:53.216Z,952.21
2018-05-15T09:26:53.225Z,952.19
2018-05-15T09:27:53.239Z,952.26
2018-05-15T09:28:53.249Z,952.26
2018-05-15T09:29:53.264Z,952.32
2018-05-15T09:30:53.272Z,952.26
2018-05-15T09:31:53.288Z,952.28
2018-05-15T09:32:53.303Z,952.19
2018-05-15T09:33:53.312Z,952.24
2018-05-15T09:34:53.318Z,952.19
2018-05-15T09:35:53.328Z,952.17
2018-05-15T09:36:53.341Z,952.21
2018-05-15T09:37:53.357Z,952.26
2018-05-15T09:38:53.364Z,952.23
2018-05-15T09:39:53.375Z,952.23
2018-05-15T09:40:53.435Z,952.28
2018-05-15T09:41:53.399Z,952.29
2018-05-15T09:42:53.413Z,952.35
2018-05-15T09:43:53.420Z,952.27
2018-05-15T09:44:53.443Z,952.28
2018-05-15T09:45:53.446Z,952.36
2018-05-15T09:46:53.490Z,952.45
2018-05-15T09:47:53.468Z,952.50
2018-05-15T09:48:53.482Z,952.55
2018-05-15T09:49:53.497Z,952.43
2018-05-15T09:50:53.510Z,952.43
2018-05-15T09:51:53.545Z,952.48
2018-05-15T09:52:53.531Z,952.49
2018-05-15T09:53:53.542Z,952.45
2018-05-15T09:54:53.552Z,952.44
2018-05-15T09:55:53.567Z,952.39
2018-05-15T09:56:53.577Z,952.33
2018-05-15T09:57:53.604Z,952.28
2018-05-15T09:58:53.617Z,952.23
2018-05-15T09:59:53.617Z,952.19
2018-05-15T10:00:53.625Z,952.14
2018-05-15T10:01:53.637Z,952.15
2018-05-15T10:02:53.652Z,952.09
2018-05-15T10:03:53.664Z,952.07
2018-05-15T10:04:53.684Z,952.09
2018-05-15T10:05:53.691Z,952.14
2018-05-15T10:06:53.699Z,952.28
2018-05-15T10:07:53.728Z,952.27
2018-05-15T10:08:53.724Z,952.17
2018-05-15T10:09:53.740Z,952.18
2018-05-15T10:10:53.812Z,952.17
2018-05-15T10:11:53.762Z,952.07
2018-05-15T10:12:53.781Z,952.10
2018-05-15T10:13:53.788Z,952.08
2018-05-15T10:14:53.799Z,952.10
2018-05-15T10:15:53.812Z,952.09
2018-05-15T10:16:53.825Z,952.07
2018-05-15T10:17:53.837Z,952.02
2018-05-15T10:18:53.856Z,952.02
2018-05-15T10:19:53.897Z,952.09
2018-05-15T10:20:53.870Z,952.07
2018-05-15T10:21:53.885Z,952.07
2018-05-15T10:22:53.896Z,952.10
2018-05-15T10:23:53.907Z,952.13
2018-05-15T10:24:53.924Z,952.16
2018-05-15T10:25:53.947Z,952.15
2018-05-15T10:26:53.949Z,952.15
2018-05-15T10:27:53.959Z,952.22
2018-05-15T10:28:53.971Z,952.16
2018-05-15T10:29:53.996Z,952.20
2018-05-15T10:30:54.000Z,952.27
2018-05-15T10:31:54.020Z,952.32
2018-05-15T10:32:54.022Z,952.35
2018-05-15T10:33:54.034Z,952.29
2018-05-15T10:34:54.046Z,952.14
2018-05-15T10:35:54.060Z,952.16
2018-05-15T10:36:54.071Z,952.16
2018-05-15T10:37:54.090Z,952.03
2018-05-15T10:38:54.097Z,951.97
2018-05-15T10:39:54.111Z,951.97
2018-05-15T10:40:54.123Z,951.91
2018-05-15T10:41:54.136Z,951.96
2018-05-15T10:42:54.158Z,951.91
2018-05-15T10:43:54.229Z,951.95
2018-05-15T10:44:54.176Z,951.92
2018-05-15T10:45:54.191Z,951.98
2018-05-15T10:46:54.202Z,952.04
2018-05-15T10:47:54.216Z,951.90
2018-05-15T10:48:54.226Z,951.90
2018-05-15T10:49:54.244Z,951.86
2018-05-15T10:50:54.253Z,951.84
2018-05-15T10:51:54.264Z,951.79
2018-05-15T10:52:54.277Z,951.87
2018-05-15T10:53:54.291Z,951.83
2018-05-15T10:54:54.304Z,951.78
2018-05-15T10:55:54.321Z,951.80
2018-05-15T10:56:54.331Z,951.76
2018-05-15T10:57:54.344Z,951.74
2018-05-15T10:58:54.359Z,951.74
2018-05-15T10:59:54.370Z,951.70
2018-05-15T11:00:54.383Z,951.66
2018-05-15T11:01:54.430Z,951.66
2018-05-15T11:02:54.422Z,951.78
2018-05-15T11:03:54.421Z,951.76
2018-05-15T11:04:54.436Z,951.72
2018-05-15T11:05:54.454Z,951.70
2018-05-15T11:06:54.460Z,951.66
2018-05-15T11:07:54.497Z,951.67
2018-05-15T11:08:54.494Z,951.65
2018-05-15T11:09:54.497Z,951.57
2018-05-15T11:10:54.510Z,951.58
2018-05-15T11:11:54.522Z,951.60
2018-05-15T11:12:54.537Z,951.57
2018-05-15T11:13:54.553Z,951.58
2018-05-15T11:14:54.561Z,951.50
2018-05-15T11:15:54.580Z,951.53
2018-05-15T11:16:54.587Z,951.62
2018-05-15T11:17:54.599Z,951.67
2018-05-15T11:18:54.615Z,951.70
2018-05-15T11:19:54.630Z,951.85
2018-05-15T11:20:54.638Z,951.93
2018-05-15T11:21:54.666Z,952.05
2018-05-15T11:22:54.675Z,952.08
2018-05-15T11:23:54.690Z,952.12
2018-05-15T11:24:54.699Z,952.09
2018-05-15T11:25:54.713Z,952.14
2018-05-15T11:26:54.730Z,952.15
2018-05-15T11:27:54.749Z,952.21
2018-05-15T11:28:54.772Z,952.14
2018-05-15T11:29:54.786Z,951.66
2018-05-15T11:30:54.801Z,952.15
2018-05-15T11:31:54.818Z,952.16
2018-05-15T11:32:54.837Z,952.21
2018-05-15T11:33:54.854Z,951.93
2018-05-15T11:34:54.880Z,952.03
2018-05-15T11:35:54.899Z,951.53
2018-05-15T11:36:54.924Z,951.55
2018-05-15T11:37:54.935Z,951.66
2018-05-15T11:38:54.955Z,952.21
2018-05-15T11:39:54.969Z,952.20
2018-05-15T11:40:54.991Z,952.19
2018-05-15T11:41:55.156Z,952.15
2018-05-15T11:42:55.038Z,952.25
2018-05-15T11:43:55.053Z,951.83
2018-05-15T11:44:55.071Z,952.17
2018-05-15T11:45:55.090Z,951.84
2018-05-15T11:46:55.112Z,951.67
2018-05-15T11:47:55.654Z,952.25
2018-05-15T11:48:55.608Z,952.23
2018-05-15T11:49:56.028Z,952.28
2018-05-15T11:50:55.898Z,951.63
2018-05-15T11:51:56.159Z,952.31
2018-05-15T11:52:56.081Z,952.27
2018-05-15T11:53:55.342Z,951.63
2018-05-15T11:54:55.275Z,951.76
2018-05-15T11:55:55.345Z,952.32
2018-05-15T11:56:55.321Z,952.35
2018-05-15T11:57:55.429Z,952.33
2018-05-15T11:58:55.363Z,952.31
2018-05-15T11:59:55.459Z,952.26
2018-05-15T12:00:55.406Z,952.24
2018-05-15T12:01:55.442Z,952.29
2018-05-15T12:02:55.453Z,952.26
2018-05-15T12:03:55.509Z,952.32
2018-05-15T12:04:55.501Z,952.36
2018-05-15T12:05:55.519Z,952.52
2018-05-15T12:06:55.544Z,952.57
2018-05-15T12:07:55.576Z,952.68
2018-05-15T12:08:55.597Z,952.64
2018-05-15T12:09:55.634Z,952.58
2018-05-15T12:10:55.635Z,952.62
2018-05-15T12:11:55.661Z,952.69
2018-05-15T12:12:55.741Z,952.62
2018-05-15T12:13:55.711Z,952.39
2018-05-15T12:14:55.738Z,952.70
2018-05-15T12:15:55.756Z,951.70
2018-05-15T12:16:55.780Z,951.80
2018-05-15T12:17:55.805Z,952.61
2018-05-15T12:18:55.829Z,951.98
2018-05-15T12:19:55.857Z,951.96
2018-05-15T12:20:55.878Z,952.69
2018-05-15T12:21:55.903Z,951.78
2018-05-15T12:22:55.923Z,951.71
2018-05-15T12:23:55.947Z,951.71
2018-05-15T12:24:55.971Z,951.83
2018-05-15T12:25:56.011Z,952.75
2018-05-15T12:26:56.015Z,952.81
2018-05-15T12:27:56.047Z,952.85
2018-05-15T12:28:56.063Z,952.89